ADDS METAR Data INFO
IDs: Format: Raw Decoded Include TAF

Data at: 0350 UTC 18 Oct 2017

KIKT 180325Z AUTO 08024KT 10SM FEW031 FEW038 25/18 A3013 RMK A01
KIKT 180320Z AUTO 07022KT 10SM FEW031 FEW037 25/18 A3013 RMK A01
KIKT 180300Z AUTO 07024KT 10SM SCT031 SCT038 25/18 A3013 RMK A01
KIKT 180240Z AUTO 07025KT 10SM FEW027 FEW033 BKN046 25/19 A3013 RMK A01
KIKT 180220Z AUTO 07024KT 10SM FEW026 FEW036 OVC046 25/19 A3013 RMK A01
KIKT 180200Z AUTO 06018G28KT 10SM FEW025 BKN032 OVC045 25/19 A3012 RMK A01
KIKT 180140Z AUTO 06017G27KT 10SM SCT024 BKN030 OVC048 25/19 A3012 RMK A01
KIKT 180120Z AUTO 05014G26KT 10SM SCT024 BKN030 OVC040 25/20 A3011 RMK A01
KIKT 180100Z AUTO 06017G26KT 10SM SCT022 BKN029 OVC041 25/20 A3011 RMK A01
KIKT 180040Z AUTO 06014G21KT 10SM SCT022 BKN031 OVC050 25/20 A3010 RMK A01
KIKT 180020Z AUTO 05013KT 10SM FEW021 SCT027 BKN036 25/20 A3009 RMK A01
KIKT 180000Z AUTO 05013G25KT 10SM FEW021 BKN027 OVC042 25/20 A3009 RMK A01
KIKT 172340Z AUTO 06015G23KT 9SM SCT019 BKN023 OVC050 25/21 A3009 RMK A01
KIKT 172320Z AUTO 05015G25KT 9SM BKN020 BKN027 OVC047 25/21 A3008 RMK A01
KIKT 172300Z AUTO 05013G24KT 9SM FEW020 BKN026 BKN032 25/21 A3007 RMK A01
KIKT 172240Z AUTO 05014G25KT 8SM FEW019 FEW024 SCT033 25/21 A3006 RMK A01
KIKT 172220Z AUTO 05013G23KT 9SM FEW017 SCT033 BKN048 25/21 A3006 RMK A01
KIKT 172200Z AUTO 05013G19KT 9SM SCT019 BKN024 OVC035 25/21 A3007 RMK A01
KIKT 172140Z AUTO 05015G22KT 8SM BKN018 BKN025 OVC034 25/21 A3006 RMK A01
KIKT 172120Z AUTO 04013G21KT 9SM BKN019 BKN025 25/21 A3006 RMK A01
KIKT 172100Z AUTO 05013G21KT 9SM SCT019 SCT025 25/21 A3006 RMK A01
KIKT 172040Z AUTO 04014G23KT 8SM SCT018 BKN025 BKN031 25/21 A3005 RMK A01
KIKT 172020Z AUTO 05013G20KT 9SM BKN020 BKN026 BKN031 25/21 A3006 RMK A01
KIKT 172000Z AUTO 04015G21KT 9SM FEW019 SCT024 BKN047 26/21 A3006 RMK A01
KIKT 171940Z AUTO 04014KT 10SM SCT021 BKN025 BKN030 26/21 A3007 RMK A01
KIKT 171920Z AUTO 05010KT 9SM BKN022 BKN028 OVC047 26/21 A3007 RMK A01
KIKT 171900Z AUTO 05011G18KT 10SM BKN022 BKN027 26/21 A3007 RMK A01
KIKT 171840Z AUTO 05009G17KT 10SM BKN022 BKN027 BKN045 26/21 A3008 RMK A01
KIKT 171820Z AUTO 05010G16KT 9SM BKN022 BKN030 OVC046 26/20 A3009 RMK A01
KIKT 171800Z AUTO 04014KT 10SM BKN022 OVC030 26/21 A3010 RMK A01
KIKT 171740Z AUTO 04010G19KT 9SM SCT021 BKN032 OVC037 26/21 A3010 RMK A01
KIKT 171720Z AUTO 05008KT 10SM FEW022 OVC037 26/20 A3011 RMK A01
KIKT 171700Z AUTO 06011KT 10SM FEW022 OVC037 26/20 A3012 RMK A01
KIKT 171640Z AUTO 07012KT 9SM SCT022 SCT027 OVC035 26/20 A3012 RMK A01
KIKT 171620Z AUTO 07013KT 10SM FEW022 BKN029 OVC034 25/20 A3013 RMK A01
KIKT 171600Z AUTO 07014KT 10SM SCT022 OVC031 25/20 A3013 RMK A01
KIKT 171540Z AUTO 07014KT 10SM FEW024 OVC032 25/19 A3013 RMK A01
KIKT 171520Z AUTO 06009G16KT 10SM FEW023 BKN030 26/19 A3013 RMK A01
KIKT 171500Z AUTO 06010G18KT 10SM SCT024 BKN030 25/19 A3013 RMK A01
KIKT 171440Z AUTO 06013KT 9SM OVC026 25/19 A3012 RMK A01
KIKT 171420Z AUTO 06015KT 10SM OVC025 24/19 A3012 RMK A01
KIKT 171400Z AUTO 06012G17KT 10SM BKN024 OVC028 24/19 A3011 RMK A01
KIKT 171340Z AUTO 06012G19KT 10SM OVC024 24/18 A3011 RMK A01
KIKT 171320Z AUTO 06012G18KT 10SM OVC025 24/18 A3010 RMK A01
KIKT 171300Z AUTO 07017KT 10SM OVC024 24/18 A3009 RMK A01
KIKT 171240Z AUTO 06011G19KT 10SM OVC024 24/18 A3008 RMK A01
KIKT 171220Z AUTO 05010G17KT 10SM BKN025 24/18 A3008 RMK A01
KIKT 171200Z AUTO 06013G22KT 10SM BKN025 BKN030 24/18 A3008 RMK A01
KIKT 171140Z AUTO 05012G19KT 10SM BKN026 24/18 A3008 RMK A01
KIKT 171120Z AUTO 05011G20KT 10SM BKN026 24/18 A3007 RMK A01
KIKT 171100Z AUTO 04014G19KT 10SM BKN026 24/18 A3007 RMK A01
KIKT 170345Z AUTO 02017G30KT 10SM BKN025 BKN036 23/17 A3008 RMK A01
KIKT 170340Z AUTO 03023G29KT 10SM OVC027 23/17 A3008 RMK A01
KIKT 170320Z AUTO 03020G29KT 10SM OVC026 23/17 A3009 RMK A01
KIKT 170300Z AUTO 03025KT 10SM OVC026 24/18 A3008 RMK A01
KIKT 170240Z AUTO 03018G29KT 10SM OVC024 24/18 A3008 RMK A01
KIKT 170155Z AUTO 02016G29KT 10SM OVC020 24/20 A3006 RMK A01
KIKT 170140Z AUTO 03019G29KT 10SM BKN018 OVC023 24/20 A3006 RMK A01
KIKT 170115Z AUTO 03016G23KT 10SM SCT015 BKN023 OVC028 25/21 A3005 RMK A01
KIKT 170100Z AUTO 01008G23KT 340V050 10SM SCT017 OVC022 25/21 A3005 RMK A01
KIKT 170040Z AUTO 01008G17KT 330V040 10SM SCT017 BKN022 OVC026 25/21 A3004 RMK A01
KIKT 170020Z AUTO 01008G17KT 330V050 10SM SCT018 OVC025 25/21 A3003 RMK A01
KIKT 170000Z AUTO VRB06G21KT 10SM OVC018 25/21 A3002 RMK A01
KIKT 162340Z AUTO 01007G15KT 320V080 10SM BKN016 OVC021 25/22 A3002 RMK A01
KIKT 162320Z AUTO VRB05G13KT 9SM BKN014 BKN018 OVC023 26/22 A3002 RMK A01
KIKT 162300Z AUTO 36007G17KT 310V050 9SM SCT012 BKN022 OVC037 26/22 A3001 RMK A01
KIKT 162240Z AUTO VRB05G15KT 8SM SCT013 SCT017 OVC039 26/22 A3000 RMK A01
KIKT 162220Z AUTO VRB06G16KT 9SM FEW013 BKN020 OVC039 25/22 A3000 RMK A01
KIKT 162200Z AUTO 01007G17KT 340V050 9SM BKN016 BKN022 OVC026 26/22 A3000 RMK A01
KIKT 162140Z AUTO VRB06G18KT 10SM FEW013 SCT018 BKN023 26/23 A3000 RMK A01
KIKT 162120Z AUTO 01007G12KT 330V060 10SM SCT016 BKN020 BKN027 26/23 A2999 RMK A01
KIKT 162100Z AUTO 01007G18KT 300V050 10SM BKN018 BKN026 OVC035 26/23 A2999 RMK A01
KIKT 162040Z AUTO 02008G13KT 340V080 10SM SCT017 BKN022 OVC034 26/22 A2999 RMK A01
KIKT 162020Z AUTO 02011G20KT 350V050 9SM BKN016 OVC023 27/23 A3000 RMK A01
KIKT 162000Z AUTO 02008G18KT 350V050 9SM SCT015 BKN021 OVC026 26/23 A2999 RMK A01
KIKT 161940Z AUTO 02010G17KT 330V030 10SM BKN016 BKN020 OVC024 26/23 A3000 RMK A01
KIKT 161920Z AUTO 03015KT 9SM BKN016 OVC022 26/22 A3000 RMK A01
KIKT 161900Z AUTO 03015KT 10SM BKN014 BKN019 26/23 A3001 RMK A01
KIKT 161840Z AUTO 02010G21KT 9SM SCT013 BKN018 BKN026 26/23 A3001 RMK A01
KIKT 161820Z AUTO 03016G23KT 10SM SCT013 SCT020 SCT026 27/23 A3002 RMK A01
KIKT 161800Z AUTO 03013G19KT 340V040 10SM CLR 27/21 A3003 RMK A01
KIKT 161740Z AUTO 04011G18KT 10SM CLR 27/22 A3004 RMK A01
KIKT 161720Z AUTO 04017KT 10SM CLR 27/23 A3005 RMK A01
KIKT 161700Z AUTO 03014G19KT 10SM CLR 27/23 A3005 RMK A01
KIKT 161640Z AUTO 03017KT 9SM FEW030 FEW036 26/23 A3005 RMK A01
KIKT 161620Z AUTO 01011G22KT 330V030 9SM FEW013 FEW021 SCT028 26/23 A3005 RMK A01
KIKT 161600Z AUTO 03018KT 9SM FEW013 BKN027 26/23 A3006 RMK A01 P0001